sensor_id;sensor_type;location;lat;lon;timestamp;P1;durP1;ratioP1;P2;durP2;ratioP2
14125;SDS011;7141;49.484;11.242;2023-03-23T00:01:11;7.37;;;4.03;;
14125;SDS011;7141;49.484;11.242;2023-03-23T00:03:44;5.70;;;4.33;;
14125;SDS011;7141;49.484;11.242;2023-03-23T00:06:11;6.23;;;4.87;;
14125;SDS011;7141;49.484;11.242;2023-03-23T00:08:42;8.37;;;4.50;;
14125;SDS011;7141;49.484;11.242;2023-03-23T00:11:15;8.63;;;4.57;;
14125;SDS011;7141;49.484;11.242;2023-03-23T00:13:43;6.90;;;4.43;;
14125;SDS011;7141;49.484;11.242;2023-03-23T00:16:10;7.30;;;4.37;;
14125;SDS011;7141;49.484;11.242;2023-03-23T00:18:46;9.50;;;4.83;;
14125;SDS011;7141;49.484;11.242;2023-03-23T00:21:12;10.07;;;4.67;;
14125;SDS011;7141;49.484;11.242;2023-03-23T00:23:39;7.20;;;3.90;;
14125;SDS011;7141;49.484;11.242;2023-03-23T00:26:05;9.43;;;4.57;;
14125;SDS011;7141;49.484;11.242;2023-03-23T00:28:31;10.10;;;3.90;;
14125;SDS011;7141;49.484;11.242;2023-03-23T00:30:58;5.33;;;4.10;;
14125;SDS011;7141;49.484;11.242;2023-03-23T00:33:26;5.90;;;4.20;;
14125;SDS011;7141;49.484;11.242;2023-03-23T00:35:53;7.23;;;4.10;;
14125;SDS011;7141;49.484;11.242;2023-03-23T00:38:19;9.83;;;3.60;;
14125;SDS011;7141;49.484;11.242;2023-03-23T00:40:45;8.03;;;3.90;;
14125;SDS011;7141;49.484;11.242;2023-03-23T00:43:12;5.93;;;3.33;;
14125;SDS011;7141;49.484;11.242;2023-03-23T00:45:38;5.23;;;3.47;;
14125;SDS011;7141;49.484;11.242;2023-03-23T00:48:04;6.63;;;3.50;;
14125;SDS011;7141;49.484;11.242;2023-03-23T00:50:31;5.87;;;3.53;;
14125;SDS011;7141;49.484;11.242;2023-03-23T00:52:57;5.87;;;3.47;;
14125;SDS011;7141;49.484;11.242;2023-03-23T00:55:24;9.17;;;3.70;;
14125;SDS011;7141;49.484;11.242;2023-03-23T00:57:50;8.83;;;3.70;;
14125;SDS011;7141;49.484;11.242;2023-03-23T01:00:17;5.73;;;3.77;;
14125;SDS011;7141;49.484;11.242;2023-03-23T01:02:44;5.30;;;3.80;;
14125;SDS011;7141;49.484;11.242;2023-03-23T01:05:10;7.90;;;3.93;;
14125;SDS011;7141;49.484;11.242;2023-03-23T01:07:36;10.50;;;6.93;;
14125;SDS011;7141;49.484;11.242;2023-03-23T01:10:03;5.37;;;3.90;;
14125;SDS011;7141;49.484;11.242;2023-03-23T01:12:29;7.53;;;3.70;;
14125;SDS011;7141;49.484;11.242;2023-03-23T01:14:55;9.20;;;3.70;;
14125;SDS011;7141;49.484;11.242;2023-03-23T01:17:21;6.20;;;3.30;;
14125;SDS011;7141;49.484;11.242;2023-03-23T01:19:47;6.30;;;3.20;;
14125;SDS011;7141;49.484;11.242;2023-03-23T01:22:13;4.63;;;3.10;;
14125;SDS011;7141;49.484;11.242;2023-03-23T01:24:39;3.33;;;2.77;;
14125;SDS011;7141;49.484;11.242;2023-03-23T01:27:05;5.00;;;3.00;;
14125;SDS011;7141;49.484;11.242;2023-03-23T01:29:34;5.63;;;3.57;;
14125;SDS011;7141;49.484;11.242;2023-03-23T01:32:00;7.50;;;3.57;;
14125;SDS011;7141;49.484;11.242;2023-03-23T01:34:27;6.57;;;3.40;;
14125;SDS011;7141;49.484;11.242;2023-03-23T01:36:52;5.13;;;3.13;;
14125;SDS011;7141;49.484;11.242;2023-03-23T01:39:18;8.40;;;3.43;;
14125;SDS011;7141;49.484;11.242;2023-03-23T01:41:45;5.03;;;2.97;;
14125;SDS011;7141;49.484;11.242;2023-03-23T01:46:43;5.83;;;3.60;;
14125;SDS011;7141;49.484;11.242;2023-03-23T01:49:13;6.73;;;3.77;;
14125;SDS011;7141;49.484;11.242;2023-03-23T01:51:45;6.57;;;3.63;;
14125;SDS011;7141;49.484;11.242;2023-03-23T01:54:13;6.37;;;3.70;;
14125;SDS011;7141;49.484;11.242;2023-03-23T01:56:45;6.50;;;3.57;;
14125;SDS011;7141;49.484;11.242;2023-03-23T01:59:13;7.00;;;3.33;;
14125;SDS011;7141;49.484;11.242;2023-03-23T02:01:40;5.00;;;3.50;;
14125;SDS011;7141;49.484;11.242;2023-03-23T02:04:10;6.37;;;3.53;;
14125;SDS011;7141;49.484;11.242;2023-03-23T02:06:36;4.67;;;2.80;;
14125;SDS011;7141;49.484;11.242;2023-03-23T02:09:03;4.57;;;2.73;;
14125;SDS011;7141;49.484;11.242;2023-03-23T02:11:31;5.37;;;2.97;;
14125;SDS011;7141;49.484;11.242;2023-03-23T02:13:57;4.60;;;2.60;;
14125;SDS011;7141;49.484;11.242;2023-03-23T02:26:54;2.80;;;2.20;;
14125;SDS011;7141;49.484;11.242;2023-03-23T02:34:25;2.57;;;1.97;;
14125;SDS011;7141;49.484;11.242;2023-03-23T02:36:56;5.73;;;2.80;;
14125;SDS011;7141;49.484;11.242;2023-03-23T02:39:25;6.17;;;2.90;;
14125;SDS011;7141;49.484;11.242;2023-03-23T02:42:14;4.57;;;2.80;;
14125;SDS011;7141;49.484;11.242;2023-03-23T02:44:39;4.13;;;2.77;;
14125;SDS011;7141;49.484;11.242;2023-03-23T02:47:07;3.70;;;2.70;;
14125;SDS011;7141;49.484;11.242;2023-03-23T02:49:34;4.20;;;2.80;;
14125;SDS011;7141;49.484;11.242;2023-03-23T02:52:03;6.73;;;2.97;;
14125;SDS011;7141;49.484;11.242;2023-03-23T02:54:30;7.20;;;3.30;;
14125;SDS011;7141;49.484;11.242;2023-03-23T02:56:56;4.43;;;2.87;;
14125;SDS011;7141;49.484;11.242;2023-03-23T02:59:23;6.07;;;2.90;;
14125;SDS011;7141;49.484;11.242;2023-03-23T03:01:50;5.03;;;2.90;;
14125;SDS011;7141;49.484;11.242;2023-03-23T03:04:19;4.80;;;3.20;;
14125;SDS011;7141;49.484;11.242;2023-03-23T03:11:52;4.03;;;2.90;;
14125;SDS011;7141;49.484;11.242;2023-03-23T03:14:25;5.60;;;2.90;;
14125;SDS011;7141;49.484;11.242;2023-03-23T03:16:56;3.77;;;2.90;;
14125;SDS011;7141;49.484;11.242;2023-03-23T03:19:24;4.27;;;2.83;;
14125;SDS011;7141;49.484;11.242;2023-03-23T03:21:53;2.67;;;2.20;;
14125;SDS011;7141;49.484;11.242;2023-03-23T03:24:20;6.00;;;3.00;;
14125;SDS011;7141;49.484;11.242;2023-03-23T03:26:48;4.37;;;2.70;;
14125;SDS011;7141;49.484;11.242;2023-03-23T03:29:16;4.70;;;2.93;;
14125;SDS011;7141;49.484;11.242;2023-03-23T03:31:44;9.27;;;3.30;;
14125;SDS011;7141;49.484;11.242;2023-03-23T03:34:12;3.67;;;2.50;;
14125;SDS011;7141;49.484;11.242;2023-03-23T03:36:42;3.20;;;2.10;;
14125;SDS011;7141;49.484;11.242;2023-03-23T03:39:09;5.47;;;2.70;;
14125;SDS011;7141;49.484;11.242;2023-03-23T03:41:36;5.20;;;2.30;;
14125;SDS011;7141;49.484;11.242;2023-03-23T03:44:03;4.67;;;2.60;;
14125;SDS011;7141;49.484;11.242;2023-03-23T03:46:29;4.87;;;2.63;;
14125;SDS011;7141;49.484;11.242;2023-03-23T03:48:56;3.17;;;2.03;;
14125;SDS011;7141;49.484;11.242;2023-03-23T03:51:22;2.87;;;1.97;;
14125;SDS011;7141;49.484;11.242;2023-03-23T03:53:48;2.63;;;1.83;;
14125;SDS011;7141;49.484;11.242;2023-03-23T03:56:14;2.33;;;1.60;;
14125;SDS011;7141;49.484;11.242;2023-03-23T03:58:41;1.70;;;1.60;;
14125;SDS011;7141;49.484;11.242;2023-03-23T04:01:07;1.83;;;1.50;;
14125;SDS011;7141;49.484;11.242;2023-03-23T04:03:35;3.93;;;1.67;;
14125;SDS011;7141;49.484;11.242;2023-03-23T04:06:01;2.80;;;1.57;;
14125;SDS011;7141;49.484;11.242;2023-03-23T04:08:27;4.30;;;1.77;;
14125;SDS011;7141;49.484;11.242;2023-03-23T04:10:53;1.70;;;1.60;;
14125;SDS011;7141;49.484;11.242;2023-03-23T04:13:20;2.87;;;1.50;;
14125;SDS011;7141;49.484;11.242;2023-03-23T04:15:46;1.97;;;1.03;;
14125;SDS011;7141;49.484;11.242;2023-03-23T04:18:12;2.50;;;1.53;;
14125;SDS011;7141;49.484;11.242;2023-03-23T04:20:40;2.27;;;1.60;;
14125;SDS011;7141;49.484;11.242;2023-03-23T04:23:06;2.20;;;1.60;;
14125;SDS011;7141;49.484;11.242;2023-03-23T04:25:32;2.80;;;1.50;;
14125;SDS011;7141;49.484;11.242;2023-03-23T04:27:58;1.93;;;1.53;;
14125;SDS011;7141;49.484;11.242;2023-03-23T04:30:26;2.60;;;1.80;;
14125;SDS011;7141;49.484;11.242;2023-03-23T04:32:52;2.00;;;1.20;;
14125;SDS011;7141;49.484;11.242;2023-03-23T04:35:20;5.43;;;1.73;;
14125;SDS011;7141;49.484;11.242;2023-03-23T04:37:47;2.60;;;1.37;;
14125;SDS011;7141;49.484;11.242;2023-03-23T04:40:14;2.03;;;1.30;;
14125;SDS011;7141;49.484;11.242;2023-03-23T04:42:41;2.83;;;1.40;;
14125;SDS011;7141;49.484;11.242;2023-03-23T04:45:11;2.67;;;1.50;;
14125;SDS011;7141;49.484;11.242;2023-03-23T04:47:39;1.47;;;1.37;;
14125;SDS011;7141;49.484;11.242;2023-03-23T04:50:09;1.73;;;1.30;;
14125;SDS011;7141;49.484;11.242;2023-03-23T04:52:36;2.07;;;1.20;;
14125;SDS011;7141;49.484;11.242;2023-03-23T04:55:03;2.63;;;1.50;;
14125;SDS011;7141;49.484;11.242;2023-03-23T04:57:30;3.50;;;1.30;;
14125;SDS011;7141;49.484;11.242;2023-03-23T04:59:57;1.40;;;1.30;;
14125;SDS011;7141;49.484;11.242;2023-03-23T05:02:23;1.60;;;1.30;;
14125;SDS011;7141;49.484;11.242;2023-03-23T05:04:50;1.63;;;1.30;;
14125;SDS011;7141;49.484;11.242;2023-03-23T05:07:16;2.43;;;1.33;;
14125;SDS011;7141;49.484;11.242;2023-03-23T05:09:46;3.70;;;1.57;;
14125;SDS011;7141;49.484;11.242;2023-03-23T05:12:12;1.90;;;1.33;;
14125;SDS011;7141;49.484;11.242;2023-03-23T05:14:40;1.93;;;1.33;;
14125;SDS011;7141;49.484;11.242;2023-03-23T05:17:06;2.10;;;1.40;;
14125;SDS011;7141;49.484;11.242;2023-03-23T05:19:32;2.67;;;1.37;;
14125;SDS011;7141;49.484;11.242;2023-03-23T05:21:58;1.60;;;1.50;;
14125;SDS011;7141;49.484;11.242;2023-03-23T05:24:31;6.00;;;2.00;;
14125;SDS011;7141;49.484;11.242;2023-03-23T05:26:57;3.87;;;1.87;;
14125;SDS011;7141;49.484;11.242;2023-03-23T05:29:23;1.37;;;1.20;;
14125;SDS011;7141;49.484;11.242;2023-03-23T05:31:50;2.03;;;1.50;;
14125;SDS011;7141;49.484;11.242;2023-03-23T05:34:18;1.53;;;1.40;;
14125;SDS011;7141;49.484;11.242;2023-03-23T05:36:44;4.07;;;1.60;;
14125;SDS011;7141;49.484;11.242;2023-03-23T05:39:13;2.53;;;1.50;;
14125;SDS011;7141;49.484;11.242;2023-03-23T05:41:39;2.83;;;1.67;;
14125;SDS011;7141;49.484;11.242;2023-03-23T05:44:05;2.47;;;1.40;;
14125;SDS011;7141;49.484;11.242;2023-03-23T05:46:32;1.30;;;1.20;;
14125;SDS011;7141;49.484;11.242;2023-03-23T05:48:58;2.03;;;1.60;;
14125;SDS011;7141;49.484;11.242;2023-03-23T05:51:25;2.40;;;1.47;;
14125;SDS011;7141;49.484;11.242;2023-03-23T05:53:51;3.23;;;1.40;;
14125;SDS011;7141;49.484;11.242;2023-03-23T05:56:17;3.40;;;1.30;;
14125;SDS011;7141;49.484;11.242;2023-03-23T05:58:43;2.37;;;1.57;;
14125;SDS011;7141;49.484;11.242;2023-03-23T06:01:09;1.60;;;1.40;;
14125;SDS011;7141;49.484;11.242;2023-03-23T06:03:38;3.27;;;1.30;;
14125;SDS011;7141;49.484;11.242;2023-03-23T06:06:04;1.80;;;1.60;;
14125;SDS011;7141;49.484;11.242;2023-03-23T06:08:31;2.73;;;1.60;;
14125;SDS011;7141;49.484;11.242;2023-03-23T06:10:56;2.70;;;1.50;;
14125;SDS011;7141;49.484;11.242;2023-03-23T06:13:23;2.50;;;1.67;;
14125;SDS011;7141;49.484;11.242;2023-03-23T06:15:49;4.30;;;1.43;;
14125;SDS011;7141;49.484;11.242;2023-03-23T06:18:15;1.80;;;1.40;;
14125;SDS011;7141;49.484;11.242;2023-03-23T06:20:41;2.07;;;1.27;;
14125;SDS011;7141;49.484;11.242;2023-03-23T06:23:09;1.63;;;1.40;;
14125;SDS011;7141;49.484;11.242;2023-03-23T06:25:35;1.80;;;1.47;;
14125;SDS011;7141;49.484;11.242;2023-03-23T06:28:00;3.37;;;1.70;;
14125;SDS011;7141;49.484;11.242;2023-03-23T06:30:28;2.13;;;1.50;;
14125;SDS011;7141;49.484;11.242;2023-03-23T06:32:54;4.37;;;2.40;;
14125;SDS011;7141;49.484;11.242;2023-03-23T06:35:21;9.90;;;1.70;;
14125;SDS011;7141;49.484;11.242;2023-03-23T06:37:47;5.07;;;1.60;;
14125;SDS011;7141;49.484;11.242;2023-03-23T06:40:13;2.30;;;1.70;;
14125;SDS011;7141;49.484;11.242;2023-03-23T06:42:39;2.93;;;1.73;;
14125;SDS011;7141;49.484;11.242;2023-03-23T06:45:05;3.57;;;2.00;;
14125;SDS011;7141;49.484;11.242;2023-03-23T06:47:32;4.97;;;2.10;;
14125;SDS011;7141;49.484;11.242;2023-03-23T06:49:58;6.57;;;2.50;;
14125;SDS011;7141;49.484;11.242;2023-03-23T06:52:24;5.43;;;1.80;;
14125;SDS011;7141;49.484;11.242;2023-03-23T06:54:51;3.60;;;1.87;;
14125;SDS011;7141;49.484;11.242;2023-03-23T06:57:17;2.83;;;1.77;;
14125;SDS011;7141;49.484;11.242;2023-03-23T06:59:44;2.77;;;1.80;;
14125;SDS011;7141;49.484;11.242;2023-03-23T07:02:11;2.20;;;1.60;;
14125;SDS011;7141;49.484;11.242;2023-03-23T07:04:38;4.77;;;1.80;;
14125;SDS011;7141;49.484;11.242;2023-03-23T07:07:05;2.23;;;1.43;;
14125;SDS011;7141;49.484;11.242;2023-03-23T07:09:31;3.40;;;1.97;;
14125;SDS011;7141;49.484;11.242;2023-03-23T07:11:57;5.57;;;2.27;;
14125;SDS011;7141;49.484;11.242;2023-03-23T07:14:23;5.93;;;1.87;;
14125;SDS011;7141;49.484;11.242;2023-03-23T07:16:49;5.60;;;1.73;;
14125;SDS011;7141;49.484;11.242;2023-03-23T07:19:15;3.77;;;1.60;;
14125;SDS011;7141;49.484;11.242;2023-03-23T07:21:41;3.20;;;1.97;;
14125;SDS011;7141;49.484;11.242;2023-03-23T07:24:11;2.27;;;2.07;;
14125;SDS011;7141;49.484;11.242;2023-03-23T07:26:39;3.53;;;1.90;;
14125;SDS011;7141;49.484;11.242;2023-03-23T07:29:05;4.03;;;1.70;;
14125;SDS011;7141;49.484;11.242;2023-03-23T07:31:31;5.13;;;1.90;;
14125;SDS011;7141;49.484;11.242;2023-03-23T07:33:57;4.50;;;2.30;;
14125;SDS011;7141;49.484;11.242;2023-03-23T07:36:23;4.17;;;1.67;;
14125;SDS011;7141;49.484;11.242;2023-03-23T07:38:49;4.87;;;2.20;;
14125;SDS011;7141;49.484;11.242;2023-03-23T07:41:15;3.23;;;2.23;;
14125;SDS011;7141;49.484;11.242;2023-03-23T07:43:42;4.23;;;2.30;;
14125;SDS011;7141;49.484;11.242;2023-03-23T07:46:08;5.97;;;2.30;;
14125;SDS011;7141;49.484;11.242;2023-03-23T07:48:35;3.23;;;2.00;;
14125;SDS011;7141;49.484;11.242;2023-03-23T07:51:01;3.13;;;2.00;;
14125;SDS011;7141;49.484;11.242;2023-03-23T07:53:27;2.70;;;1.97;;
14125;SDS011;7141;49.484;11.242;2023-03-23T07:55:53;4.43;;;2.37;;
14125;SDS011;7141;49.484;11.242;2023-03-23T07:58:19;6.50;;;2.60;;
14125;SDS011;7141;49.484;11.242;2023-03-23T08:00:46;3.77;;;2.47;;
14125;SDS011;7141;49.484;11.242;2023-03-23T08:03:13;5.83;;;2.10;;
14125;SDS011;7141;49.484;11.242;2023-03-23T08:05:40;5.70;;;2.60;;
14125;SDS011;7141;49.484;11.242;2023-03-23T08:08:08;3.83;;;2.30;;
14125;SDS011;7141;49.484;11.242;2023-03-23T08:10:34;4.50;;;2.07;;
14125;SDS011;7141;49.484;11.242;2023-03-23T08:13:01;3.57;;;2.13;;
14125;SDS011;7141;49.484;11.242;2023-03-23T08:15:27;4.63;;;2.17;;
14125;SDS011;7141;49.484;11.242;2023-03-23T08:17:53;2.10;;;1.80;;
14125;SDS011;7141;49.484;11.242;2023-03-23T08:20:19;2.43;;;1.90;;
14125;SDS011;7141;49.484;11.242;2023-03-23T08:22:50;2.73;;;2.40;;
14125;SDS011;7141;49.484;11.242;2023-03-23T08:25:17;6.00;;;2.10;;
14125;SDS011;7141;49.484;11.242;2023-03-23T08:27:44;2.60;;;2.10;;
14125;SDS011;7141;49.484;11.242;2023-03-23T08:30:11;4.67;;;2.47;;
14125;SDS011;7141;49.484;11.242;2023-03-23T08:32:37;2.93;;;2.20;;
14125;SDS011;7141;49.484;11.242;2023-03-23T08:35:04;6.37;;;2.30;;
14125;SDS011;7141;49.484;11.242;2023-03-23T08:37:30;6.07;;;2.60;;
14125;SDS011;7141;49.484;11.242;2023-03-23T08:39:56;6.10;;;2.63;;
14125;SDS011;7141;49.484;11.242;2023-03-23T08:42:23;3.67;;;2.63;;
14125;SDS011;7141;49.484;11.242;2023-03-23T08:44:49;7.07;;;2.60;;
14125;SDS011;7141;49.484;11.242;2023-03-23T08:47:15;3.73;;;2.20;;
14125;SDS011;7141;49.484;11.242;2023-03-23T08:49:41;4.50;;;2.20;;
14125;SDS011;7141;49.484;11.242;2023-03-23T08:52:08;3.30;;;2.30;;
14125;SDS011;7141;49.484;11.242;2023-03-23T08:54:34;4.50;;;2.30;;
14125;SDS011;7141;49.484;11.242;2023-03-23T08:57:01;6.97;;;3.40;;
14125;SDS011;7141;49.484;11.242;2023-03-23T08:59:27;3.93;;;2.50;;
14125;SDS011;7141;49.484;11.242;2023-03-23T09:01:54;2.67;;;2.30;;
14125;SDS011;7141;49.484;11.242;2023-03-23T09:04:20;3.90;;;2.43;;
14125;SDS011;7141;49.484;11.242;2023-03-23T09:06:46;6.13;;;3.13;;
14125;SDS011;7141;49.484;11.242;2023-03-23T09:09:12;3.70;;;2.60;;
14125;SDS011;7141;49.484;11.242;2023-03-23T09:11:39;3.13;;;2.60;;
14125;SDS011;7141;49.484;11.242;2023-03-23T09:14:06;4.37;;;2.67;;
14125;SDS011;7141;49.484;11.242;2023-03-23T09:16:33;3.70;;;2.77;;
14125;SDS011;7141;49.484;11.242;2023-03-23T09:19:00;4.77;;;2.63;;
14125;SDS011;7141;49.484;11.242;2023-03-23T09:21:26;4.60;;;2.40;;
14125;SDS011;7141;49.484;11.242;2023-03-23T09:23:54;4.07;;;2.80;;
14125;SDS011;7141;49.484;11.242;2023-03-23T09:26:23;4.30;;;2.27;;
14125;SDS011;7141;49.484;11.242;2023-03-23T09:28:50;4.17;;;2.43;;
14125;SDS011;7141;49.484;11.242;2023-03-23T09:31:17;4.20;;;2.37;;
14125;SDS011;7141;49.484;11.242;2023-03-23T09:33:45;3.20;;;2.30;;
14125;SDS011;7141;49.484;11.242;2023-03-23T09:36:11;4.57;;;2.83;;
14125;SDS011;7141;49.484;11.242;2023-03-23T09:38:39;4.93;;;2.80;;
14125;SDS011;7141;49.484;11.242;2023-03-23T09:41:19;4.80;;;2.80;;
14125;SDS011;7141;49.484;11.242;2023-03-23T09:48:57;3.20;;;2.60;;
14125;SDS011;7141;49.484;11.242;2023-03-23T09:53:52;10.83;;;2.57;;
14125;SDS011;7141;49.484;11.242;2023-03-23T09:56:20;5.13;;;2.23;;
14125;SDS011;7141;49.484;11.242;2023-03-23T09:59:00;2.90;;;2.53;;
14125;SDS011;7141;49.484;11.242;2023-03-23T10:01:31;3.93;;;2.20;;
14125;SDS011;7141;49.484;11.242;2023-03-23T10:04:01;7.97;;;2.57;;
14125;SDS011;7141;49.484;11.242;2023-03-23T10:06:27;3.80;;;2.63;;
14125;SDS011;7141;49.484;11.242;2023-03-23T10:08:54;4.53;;;2.70;;
14125;SDS011;7141;49.484;11.242;2023-03-23T10:14:42;4.40;;;2.43;;
14125;SDS011;7141;49.484;11.242;2023-03-23T10:17:17;5.80;;;2.10;;
14125;SDS011;7141;49.484;11.242;2023-03-23T10:19:51;3.57;;;2.50;;
14125;SDS011;7141;49.484;11.242;2023-03-23T10:22:22;4.13;;;2.13;;
14125;SDS011;7141;49.484;11.242;2023-03-23T10:30:17;8.77;;;2.80;;
14125;SDS011;7141;49.484;11.242;2023-03-23T10:32:52;4.80;;;2.50;;
14125;SDS011;7141;49.484;11.242;2023-03-23T10:35:24;4.40;;;2.70;;
14125;SDS011;7141;49.484;11.242;2023-03-23T10:37:56;3.63;;;2.43;;
14125;SDS011;7141;49.484;11.242;2023-03-23T10:40:26;4.60;;;2.40;;
14125;SDS011;7141;49.484;11.242;2023-03-23T10:42:54;5.27;;;2.73;;
14125;SDS011;7141;49.484;11.242;2023-03-23T10:45:24;2.83;;;2.33;;
14125;SDS011;7141;49.484;11.242;2023-03-23T10:50:36;3.17;;;2.13;;
14125;SDS011;7141;49.484;11.242;2023-03-23T10:53:07;3.43;;;2.50;;
14125;SDS011;7141;49.484;11.242;2023-03-23T10:55:38;3.40;;;2.30;;
14125;SDS011;7141;49.484;11.242;2023-03-23T10:58:06;5.17;;;2.43;;
14125;SDS011;7141;49.484;11.242;2023-03-23T11:00:32;2.40;;;2.00;;
14125;SDS011;7141;49.484;11.242;2023-03-23T11:03:05;3.83;;;2.37;;
14125;SDS011;7141;49.484;11.242;2023-03-23T11:05:37;2.40;;;2.10;;
14125;SDS011;7141;49.484;11.242;2023-03-23T11:08:09;3.50;;;2.20;;
14125;SDS011;7141;49.484;11.242;2023-03-23T11:10:38;3.13;;;2.20;;
14125;SDS011;7141;49.484;11.242;2023-03-23T11:13:04;2.80;;;1.83;;
14125;SDS011;7141;49.484;11.242;2023-03-23T11:15:37;3.00;;;1.80;;
14125;SDS011;7141;49.484;11.242;2023-03-23T11:18:05;2.10;;;1.63;;
14125;SDS011;7141;49.484;11.242;2023-03-23T11:20:36;3.63;;;1.80;;
14125;SDS011;7141;49.484;11.242;2023-03-23T11:23:37;2.87;;;1.60;;
14125;SDS011;7141;49.484;11.242;2023-03-23T11:28:29;4.57;;;1.80;;
14125;SDS011;7141;49.484;11.242;2023-03-23T11:30:56;2.50;;;1.70;;
14125;SDS011;7141;49.484;11.242;2023-03-23T11:33:23;2.63;;;1.80;;
14125;SDS011;7141;49.484;11.242;2023-03-23T11:35:50;2.47;;;1.87;;
14125;SDS011;7141;49.484;11.242;2023-03-23T11:38:18;4.13;;;2.17;;
14125;SDS011;7141;49.484;11.242;2023-03-23T11:40:49;2.07;;;1.80;;
14125;SDS011;7141;49.484;11.242;2023-03-23T11:43:20;3.57;;;1.77;;
14125;SDS011;7141;49.484;11.242;2023-03-23T11:45:56;1.90;;;1.47;;
14125;SDS011;7141;49.484;11.242;2023-03-23T11:48:31;2.43;;;1.93;;
14125;SDS011;7141;49.484;11.242;2023-03-23T11:56:19;3.13;;;1.90;;
14125;SDS011;7141;49.484;11.242;2023-03-23T11:58:49;3.70;;;1.73;;
14125;SDS011;7141;49.484;11.242;2023-03-23T12:19:40;4.73;;;2.10;;
14125;SDS011;7141;49.484;11.242;2023-03-23T12:25:02;3.20;;;2.20;;
14125;SDS011;7141;49.484;11.242;2023-03-23T12:30:13;2.80;;;1.97;;
14125;SDS011;7141;49.484;11.242;2023-03-23T12:48:34;2.20;;;1.90;;
14125;SDS011;7141;49.484;11.242;2023-03-23T12:51:16;4.50;;;2.10;;
14125;SDS011;7141;49.484;11.242;2023-03-23T12:56:16;2.57;;;2.20;;
14125;SDS011;7141;49.484;11.242;2023-03-23T12:58:46;6.73;;;1.90;;
14125;SDS011;7141;49.484;11.242;2023-03-23T13:01:23;8.70;;;2.00;;
14125;SDS011;7141;49.484;11.242;2023-03-23T13:03:58;2.90;;;1.80;;
14125;SDS011;7141;49.484;11.242;2023-03-23T13:11:33;2.90;;;1.50;;
14125;SDS011;7141;49.484;11.242;2023-03-23T13:14:06;2.27;;;1.47;;
14125;SDS011;7141;49.484;11.242;2023-03-23T13:24:15;3.13;;;1.30;;
14125;SDS011;7141;49.484;11.242;2023-03-23T13:26:43;1.70;;;1.40;;
14125;SDS011;7141;49.484;11.242;2023-03-23T13:29:13;2.40;;;1.30;;
14125;SDS011;7141;49.484;11.242;2023-03-23T13:31:40;3.27;;;1.63;;
14125;SDS011;7141;49.484;11.242;2023-03-23T13:37:04;1.90;;;1.40;;
14125;SDS011;7141;49.484;11.242;2023-03-23T13:39:47;1.20;;;1.10;;
14125;SDS011;7141;49.484;11.242;2023-03-23T13:47:16;2.10;;;1.40;;
14125;SDS011;7141;49.484;11.242;2023-03-23T13:49:47;5.73;;;1.80;;
14125;SDS011;7141;49.484;11.242;2023-03-23T13:54:42;1.93;;;1.30;;
14125;SDS011;7141;49.484;11.242;2023-03-23T13:57:26;3.23;;;1.30;;
14125;SDS011;7141;49.484;11.242;2023-03-23T13:59:59;2.03;;;1.20;;
14125;SDS011;7141;49.484;11.242;2023-03-23T14:02:36;3.10;;;1.70;;
14125;SDS011;7141;49.484;11.242;2023-03-23T14:08:43;3.10;;;1.83;;
14125;SDS011;7141;49.484;11.242;2023-03-23T14:13:14;1.50;;;1.30;;
14125;SDS011;7141;49.484;11.242;2023-03-23T14:15:43;3.60;;;1.90;;
14125;SDS011;7141;49.484;11.242;2023-03-23T14:18:13;1.50;;;1.40;;
14125;SDS011;7141;49.484;11.242;2023-03-23T14:20:40;1.67;;;1.50;;
14125;SDS011;7141;49.484;11.242;2023-03-23T14:23:12;3.63;;;1.53;;
14125;SDS011;7141;49.484;11.242;2023-03-23T14:25:40;2.27;;;1.60;;
14125;SDS011;7141;49.484;11.242;2023-03-23T14:28:15;2.33;;;1.50;;
14125;SDS011;7141;49.484;11.242;2023-03-23T14:30:42;2.80;;;1.30;;
14125;SDS011;7141;49.484;11.242;2023-03-23T14:33:09;2.17;;;1.50;;
14125;SDS011;7141;49.484;11.242;2023-03-23T14:35:37;4.03;;;1.40;;
14125;SDS011;7141;49.484;11.242;2023-03-23T14:38:03;1.93;;;1.50;;
14125;SDS011;7141;49.484;11.242;2023-03-23T14:40:30;4.07;;;1.80;;
14125;SDS011;7141;49.484;11.242;2023-03-23T14:42:56;2.13;;;1.53;;
14125;SDS011;7141;49.484;11.242;2023-03-23T14:45:23;2.57;;;1.80;;
14125;SDS011;7141;49.484;11.242;2023-03-23T14:47:51;2.03;;;1.83;;
14125;SDS011;7141;49.484;11.242;2023-03-23T14:52:49;2.47;;;1.80;;
14125;SDS011;7141;49.484;11.242;2023-03-23T14:55:19;3.17;;;1.60;;
14125;SDS011;7141;49.484;11.242;2023-03-23T14:57:46;3.73;;;1.67;;
14125;SDS011;7141;49.484;11.242;2023-03-23T15:00:16;2.60;;;1.77;;
14125;SDS011;7141;49.484;11.242;2023-03-23T15:02:44;2.10;;;1.63;;
14125;SDS011;7141;49.484;11.242;2023-03-23T15:05:12;1.60;;;1.40;;
14125;SDS011;7141;49.484;11.242;2023-03-23T15:07:40;4.33;;;1.80;;
14125;SDS011;7141;49.484;11.242;2023-03-23T15:10:13;2.80;;;1.80;;
14125;SDS011;7141;49.484;11.242;2023-03-23T15:12:40;2.77;;;1.60;;
14125;SDS011;7141;49.484;11.242;2023-03-23T15:15:15;3.27;;;1.53;;
14125;SDS011;7141;49.484;11.242;2023-03-23T15:17:41;3.30;;;2.10;;
14125;SDS011;7141;49.484;11.242;2023-03-23T15:20:19;3.73;;;1.70;;
14125;SDS011;7141;49.484;11.242;2023-03-23T15:22:47;2.50;;;1.90;;
14125;SDS011;7141;49.484;11.242;2023-03-23T15:25:32;2.00;;;1.80;;
14125;SDS011;7141;49.484;11.242;2023-03-23T15:30:32;4.03;;;2.00;;
14125;SDS011;7141;49.484;11.242;2023-03-23T15:33:02;3.60;;;1.57;;
14125;SDS011;7141;49.484;11.242;2023-03-23T15:35:33;3.40;;;2.03;;
14125;SDS011;7141;49.484;11.242;2023-03-23T15:38:45;3.87;;;2.33;;
14125;SDS011;7141;49.484;11.242;2023-03-23T15:40:48;4.07;;;2.57;;
14125;SDS011;7141;49.484;11.242;2023-03-23T15:45:50;2.73;;;1.70;;
14125;SDS011;7141;49.484;11.242;2023-03-23T15:48:16;2.63;;;1.60;;
14125;SDS011;7141;49.484;11.242;2023-03-23T15:50:42;3.93;;;1.97;;
14125;SDS011;7141;49.484;11.242;2023-03-23T15:53:21;2.97;;;1.90;;
14125;SDS011;7141;49.484;11.242;2023-03-23T15:55:48;4.20;;;1.93;;
14125;SDS011;7141;49.484;11.242;2023-03-23T15:58:14;2.80;;;1.83;;
14125;SDS011;7141;49.484;11.242;2023-03-23T16:00:40;9.77;;;3.70;;
14125;SDS011;7141;49.484;11.242;2023-03-23T16:03:10;7.40;;;2.90;;
14125;SDS011;7141;49.484;11.242;2023-03-23T16:05:36;4.47;;;2.17;;
14125;SDS011;7141;49.484;11.242;2023-03-23T16:08:02;2.73;;;2.20;;
14125;SDS011;7141;49.484;11.242;2023-03-23T16:10:28;7.43;;;2.90;;
14125;SDS011;7141;49.484;11.242;2023-03-23T16:12:55;8.97;;;3.47;;
14125;SDS011;7141;49.484;11.242;2023-03-23T16:15:21;4.13;;;2.20;;
14125;SDS011;7141;49.484;11.242;2023-03-23T16:17:47;6.20;;;2.60;;
14125;SDS011;7141;49.484;11.242;2023-03-23T16:20:17;3.93;;;2.73;;
14125;SDS011;7141;49.484;11.242;2023-03-23T16:22:44;6.23;;;2.43;;
14125;SDS011;7141;49.484;11.242;2023-03-23T16:25:10;4.33;;;2.50;;
14125;SDS011;7141;49.484;11.242;2023-03-23T16:27:36;3.10;;;2.20;;
14125;SDS011;7141;49.484;11.242;2023-03-23T16:30:35;4.57;;;2.57;;
14125;SDS011;7141;49.484;11.242;2023-03-23T16:32:54;5.73;;;2.80;;
14125;SDS011;7141;49.484;11.242;2023-03-23T16:35:21;10.83;;;3.17;;
14125;SDS011;7141;49.484;11.242;2023-03-23T16:37:48;6.30;;;2.80;;
14125;SDS011;7141;49.484;11.242;2023-03-23T16:40:14;2.77;;;2.40;;
14125;SDS011;7141;49.484;11.242;2023-03-23T16:42:41;2.90;;;2.20;;
14125;SDS011;7141;49.484;11.242;2023-03-23T16:45:07;4.07;;;2.30;;
14125;SDS011;7141;49.484;11.242;2023-03-23T16:47:34;5.10;;;2.90;;
14125;SDS011;7141;49.484;11.242;2023-03-23T16:50:00;5.97;;;3.17;;
14125;SDS011;7141;49.484;11.242;2023-03-23T16:52:26;9.90;;;3.20;;
14125;SDS011;7141;49.484;11.242;2023-03-23T16:54:52;6.60;;;3.13;;
14125;SDS011;7141;49.484;11.242;2023-03-23T16:57:18;8.30;;;3.63;;
14125;SDS011;7141;49.484;11.242;2023-03-23T16:59:44;5.47;;;2.60;;
14125;SDS011;7141;49.484;11.242;2023-03-23T17:02:10;4.47;;;2.50;;